createdAt,value
2022-12-06T00:01:22.518Z,14.83
2022-12-06T00:03:53.894Z,16.57
2022-12-06T00:06:22.836Z,12.50
2022-12-06T00:08:51.459Z,13.00
2022-12-06T00:11:24.299Z,14.03
2022-12-06T00:14:03.665Z,11.70
2022-12-06T00:16:31.728Z,9.90
2022-12-06T00:19:00.211Z,13.37
2022-12-06T00:21:30.067Z,13.37
2022-12-06T00:24:03.040Z,15.03
2022-12-06T00:26:30.928Z,12.47
2022-12-06T00:28:59.977Z,11.63
2022-12-06T00:31:28.962Z,11.73
2022-12-06T00:33:56.635Z,13.90
2022-12-06T00:36:26.436Z,12.50
2022-12-06T00:38:55.034Z,17.40
2022-12-06T00:41:24.113Z,13.10
2022-12-06T00:43:52.255Z,12.83
2022-12-06T00:46:21.917Z,14.07
2022-12-06T00:48:49.721Z,16.57
2022-12-06T00:51:17.956Z,13.93
2022-12-06T00:53:45.281Z,12.17
2022-12-06T00:56:12.919Z,13.63
2022-12-06T00:58:40.585Z,14.53
2022-12-06T01:01:16.208Z,13.63
2022-12-06T01:03:44.903Z,13.87
2022-12-06T01:06:14.412Z,13.53
2022-12-06T01:08:42.585Z,12.77
2022-12-06T01:11:10.663Z,14.23
2022-12-06T01:13:37.599Z,12.33
2022-12-06T01:16:17.741Z,14.13
2022-12-06T01:18:46.587Z,12.60
2022-12-06T01:21:16.412Z,13.10
2022-12-06T01:23:44.884Z,12.80
2022-12-06T01:26:21.317Z,13.77
2022-12-06T01:28:48.630Z,11.43
2022-12-06T01:31:16.472Z,11.07
2022-12-06T01:33:45.013Z,12.83
2022-12-06T01:36:25.740Z,13.47
2022-12-06T01:38:54.552Z,16.07
2022-12-06T01:41:23.090Z,13.97
2022-12-06T01:43:50.585Z,14.60
2022-12-06T01:46:17.460Z,14.53
2022-12-06T01:48:46.268Z,14.93
2022-12-06T01:51:15.840Z,20.23
2022-12-06T01:53:45.516Z,18.23
2022-12-06T01:56:13.506Z,14.77
2022-12-06T01:58:41.996Z,17.73
2022-12-06T02:01:10.692Z,19.90
2022-12-06T02:03:38.183Z,18.90
2022-12-06T02:06:07.863Z,14.73
2022-12-06T02:08:35.511Z,15.77
2022-12-06T02:11:04.875Z,15.13
2022-12-06T02:13:33.778Z,16.33
2022-12-06T02:16:18.581Z,18.13
2022-12-06T02:19:17.528Z,15.03
2022-12-06T02:22:03.720Z,16.63
2022-12-06T02:25:01.528Z,14.40
2022-12-06T02:28:02.280Z,17.60
2022-12-06T02:30:32.243Z,17.10
2022-12-06T02:33:04.606Z,22.07
2022-12-06T02:35:42.231Z,17.47
2022-12-06T02:38:34.574Z,16.37
2022-12-06T02:41:08.345Z,18.33
2022-12-06T02:43:43.124Z,18.90
2022-12-06T02:46:12.271Z,20.10
2022-12-06T02:48:40.572Z,18.00
2022-12-06T02:51:11.978Z,18.87
2022-12-06T02:53:46.071Z,15.57
2022-12-06T02:56:15.444Z,15.37
2022-12-06T02:58:42.383Z,13.20
2022-12-06T03:01:22.317Z,12.60
2022-12-06T03:04:00.599Z,12.50
2022-12-06T03:06:34.361Z,12.67
2022-12-06T03:09:07.159Z,10.90
2022-12-06T03:11:57.439Z,11.60
2022-12-06T03:14:26.489Z,12.57
2022-12-06T03:17:09.778Z,12.77
2022-12-06T03:19:38.893Z,14.47
2022-12-06T03:22:14.660Z,13.17
2022-12-06T03:24:44.022Z,10.93
2022-12-06T03:27:15.929Z,9.27
2022-12-06T03:29:49.974Z,9.70
2022-12-06T03:32:20.736Z,9.30
2022-12-06T03:34:51.682Z,9.10
2022-12-06T03:37:22.962Z,10.17
2022-12-06T03:40:05.958Z,10.80
2022-12-06T03:42:33.533Z,10.23
2022-12-06T03:45:01.262Z,13.73
2022-12-06T03:47:37.250Z,11.27
2022-12-06T03:50:30.174Z,14.60
2022-12-06T03:52:57.120Z,9.83
2022-12-06T03:55:24.001Z,11.03
2022-12-06T03:57:50.879Z,9.20
2022-12-06T04:00:18.125Z,9.90
2022-12-06T04:02:45.668Z,11.63
2022-12-06T04:05:12.991Z,13.10
2022-12-06T04:07:41.168Z,11.90
2022-12-06T04:10:09.463Z,11.23
2022-12-06T04:12:54.982Z,11.07
2022-12-06T04:15:23.225Z,12.60
2022-12-06T04:18:09.309Z,10.23
2022-12-06T04:20:59.742Z,12.00
2022-12-06T04:23:27.408Z,11.43
2022-12-06T04:25:54.854Z,8.90
2022-12-06T04:28:40.667Z,8.97
2022-12-06T04:31:26.335Z,8.20
2022-12-06T04:34:11.505Z,9.83
2022-12-06T04:36:58.925Z,8.50
2022-12-06T04:39:26.270Z,10.93
2022-12-06T04:42:11.854Z,10.80
2022-12-06T04:44:38.735Z,11.83
2022-12-06T04:47:06.279Z,12.87
2022-12-06T04:49:33.866Z,9.70
2022-12-06T04:52:01.305Z,10.80
2022-12-06T04:54:30.030Z,10.90
2022-12-06T04:56:58.250Z,12.03
2022-12-06T04:59:26.451Z,13.83
2022-12-06T05:01:54.037Z,13.60
2022-12-06T05:04:21.285Z,14.70
2022-12-06T05:06:48.709Z,13.87
2022-12-06T05:09:15.907Z,12.27
2022-12-06T05:11:42.734Z,11.40
2022-12-06T05:14:09.589Z,13.53
2022-12-06T05:16:36.801Z,14.53
2022-12-06T05:19:03.915Z,14.80
2022-12-06T05:21:30.767Z,14.67
2022-12-06T05:23:57.832Z,12.37
2022-12-06T05:26:28.741Z,14.67
2022-12-06T05:28:56.794Z,13.57
2022-12-06T05:31:24.725Z,12.53
2022-12-06T05:33:52.937Z,21.97
2022-12-06T05:36:25.617Z,12.30
2022-12-06T05:38:53.340Z,13.97
2022-12-06T05:41:21.921Z,15.07
2022-12-06T05:43:49.496Z,12.57
2022-12-06T05:46:16.865Z,13.67
2022-12-06T05:48:44.806Z,13.03
2022-12-06T05:51:11.880Z,14.80
2022-12-06T05:53:39.131Z,11.30
2022-12-06T05:56:08.616Z,10.73
2022-12-06T05:58:35.557Z,12.43
2022-12-06T06:01:02.480Z,10.50
2022-12-06T06:03:29.605Z,12.40
2022-12-06T06:05:59.664Z,11.60
2022-12-06T06:08:27.836Z,11.00
2022-12-06T06:10:55.433Z,13.77
2022-12-06T06:13:22.507Z,10.27
2022-12-06T06:15:50.080Z,13.37
2022-12-06T06:18:17.935Z,13.73
2022-12-06T06:20:57.145Z,11.80
2022-12-06T06:23:24.883Z,11.97
2022-12-06T06:25:51.841Z,10.93
2022-12-06T06:28:18.665Z,11.67
2022-12-06T06:30:45.879Z,14.27
2022-12-06T06:33:13.242Z,10.43
2022-12-06T06:35:40.846Z,9.63
2022-12-06T06:38:08.141Z,11.57
2022-12-06T06:40:39.858Z,10.10
2022-12-06T06:43:19.047Z,11.70
2022-12-06T06:45:53.845Z,10.63
2022-12-06T06:48:22.092Z,12.60
2022-12-06T06:50:55.417Z,11.63
2022-12-06T06:53:25.118Z,12.73
2022-12-06T06:55:53.916Z,10.90
2022-12-06T06:58:20.932Z,12.50
2022-12-06T07:01:01.663Z,14.13
2022-12-06T07:03:29.401Z,10.53
2022-12-06T07:05:59.263Z,9.73
2022-12-06T07:08:27.857Z,10.60
2022-12-06T07:10:55.424Z,9.47
2022-12-06T07:13:24.507Z,11.73
2022-12-06T07:15:51.752Z,11.50
2022-12-06T07:18:19.284Z,10.93
2022-12-06T07:20:47.125Z,9.90
2022-12-06T07:23:15.218Z,9.77
2022-12-06T07:25:42.335Z,10.93
2022-12-06T07:28:09.215Z,13.57
2022-12-06T07:30:36.066Z,11.40
2022-12-06T07:33:03.307Z,11.90
2022-12-06T07:36:03.151Z,13.37
2022-12-06T07:38:17.128Z,12.60
2022-12-06T07:43:51.434Z,11.67
2022-12-06T07:46:18.324Z,11.77
2022-12-06T07:48:45.114Z,12.47
2022-12-06T07:51:12.000Z,10.00
2022-12-06T07:53:38.782Z,11.93
2022-12-06T07:56:07.352Z,10.57
2022-12-06T07:58:34.169Z,13.60
2022-12-06T08:01:03.829Z,12.23
2022-12-06T08:03:30.833Z,13.53
2022-12-06T08:05:57.706Z,13.53
2022-12-06T08:08:28.446Z,11.17
2022-12-06T08:11:01.230Z,12.50
2022-12-06T08:13:28.982Z,11.53
2022-12-06T08:15:55.968Z,10.43
2022-12-06T08:18:22.935Z,12.67
2022-12-06T08:20:50.789Z,9.10
2022-12-06T08:23:17.605Z,10.37
2022-12-06T08:25:44.372Z,9.03
2022-12-06T08:28:11.190Z,8.70
2022-12-06T08:30:41.999Z,8.80
2022-12-06T08:33:08.907Z,12.23
2022-12-06T08:35:38.752Z,11.80
2022-12-06T08:38:05.516Z,9.97
2022-12-06T08:40:32.313Z,12.27
2022-12-06T08:42:59.132Z,10.60
2022-12-06T08:45:25.874Z,8.97
2022-12-06T08:47:52.832Z,9.40
2022-12-06T08:50:19.725Z,8.90
2022-12-06T08:52:46.501Z,9.63
2022-12-06T08:55:14.381Z,10.93
2022-12-06T08:57:41.157Z,11.33
2022-12-06T09:00:09.273Z,9.23
2022-12-06T09:02:38.298Z,7.77
2022-12-06T09:05:05.528Z,7.97
2022-12-06T09:07:32.364Z,9.23
2022-12-06T09:09:59.451Z,9.70
2022-12-06T09:12:26.564Z,13.77
2022-12-06T09:14:53.362Z,9.53
2022-12-06T09:17:20.174Z,9.80
2022-12-06T09:19:47.797Z,9.63
2022-12-06T09:22:14.662Z,9.10
2022-12-06T09:24:41.413Z,7.20
2022-12-06T09:27:08.201Z,8.30
2022-12-06T09:29:40.519Z,7.43
2022-12-06T09:32:07.842Z,8.43
2022-12-06T09:34:34.597Z,9.67
2022-12-06T09:37:10.945Z,10.87
2022-12-06T09:39:45.417Z,9.63
2022-12-06T09:42:40.522Z,8.27
2022-12-06T09:45:26.569Z,9.10
2022-12-06T09:47:59.355Z,7.90
2022-12-06T09:50:38.069Z,8.37
2022-12-06T09:53:04.781Z,9.10
2022-12-06T09:55:49.780Z,8.67
2022-12-06T09:58:25.478Z,8.80
2022-12-06T10:01:11.457Z,8.73
2022-12-06T10:04:09.155Z,7.57
2022-12-06T10:06:50.311Z,7.17
2022-12-06T10:09:37.298Z,8.83
2022-12-06T10:12:18.834Z,8.43
2022-12-06T10:14:51.394Z,8.97
2022-12-06T10:17:52.659Z,9.67
2022-12-06T10:20:28.523Z,7.40
2022-12-06T10:23:05.654Z,7.63
2022-12-06T10:25:51.405Z,8.30
2022-12-06T10:28:38.908Z,8.13
2022-12-06T10:31:16.662Z,9.80
2022-12-06T10:34:23.038Z,8.93
2022-12-06T10:36:55.657Z,9.33
2022-12-06T10:39:51.554Z,9.97
2022-12-06T10:42:40.325Z,9.13
2022-12-06T10:45:48.461Z,9.40
2022-12-06T10:48:29.557Z,9.67
2022-12-06T10:51:06.062Z,9.70
2022-12-06T10:53:38.657Z,11.43
2022-12-06T10:56:20.331Z,11.63
2022-12-06T10:59:24.913Z,10.50
2022-12-06T11:01:54.233Z,9.97
2022-12-06T11:04:28.695Z,11.87
2022-12-06T11:07:34.593Z,12.23
2022-12-06T11:10:02.532Z,13.33
2022-12-06T11:12:34.032Z,9.37
2022-12-06T11:15:42.206Z,10.50
2022-12-06T11:18:15.505Z,10.13
2022-12-06T11:20:56.818Z,12.63
2022-12-06T11:23:45.883Z,10.33
2022-12-06T11:26:44.503Z,12.70
2022-12-06T11:29:13.668Z,9.67
2022-12-06T11:32:18.243Z,9.83
2022-12-06T11:34:55.353Z,12.77
2022-12-06T11:37:33.077Z,10.17
2022-12-06T11:40:29.385Z,10.87
2022-12-06T11:42:59.553Z,10.83
2022-12-06T11:45:31.742Z,11.67
2022-12-06T11:48:01.909Z,9.70
2022-12-06T11:50:31.495Z,8.27
2022-12-06T11:53:11.548Z,9.07
2022-12-06T11:55:43.911Z,9.97
2022-12-06T11:58:29.421Z,11.13
2022-12-06T12:01:00.763Z,14.10
2022-12-06T12:03:30.750Z,10.67
2022-12-06T12:06:15.944Z,11.10
2022-12-06T12:08:57.108Z,11.10
2022-12-06T12:11:27.761Z,11.27
2022-12-06T12:14:37.310Z,13.13
2022-12-06T12:17:12.404Z,11.53
2022-12-06T12:19:44.918Z,15.73
2022-12-06T12:22:42.492Z,11.03
2022-12-06T12:25:30.319Z,12.67
2022-12-06T12:27:59.695Z,12.37
2022-12-06T12:30:34.583Z,12.10
2022-12-06T12:33:07.318Z,14.90
2022-12-06T12:35:42.640Z,11.67
2022-12-06T12:38:35.250Z,11.37
2022-12-06T12:41:41.823Z,9.47
2022-12-06T12:44:37.636Z,9.00
2022-12-06T12:47:20.839Z,7.70
2022-12-06T12:50:20.233Z,7.20
2022-12-06T12:52:47.642Z,7.43
2022-12-06T12:55:24.414Z,7.03
2022-12-06T12:57:57.307Z,7.53
2022-12-06T13:00:37.294Z,5.23
2022-12-06T13:03:28.523Z,6.70
2022-12-06T13:05:57.584Z,5.53
2022-12-06T13:08:33.549Z,5.97
2022-12-06T13:11:05.186Z,5.37
2022-12-06T13:13:47.795Z,5.43
2022-12-06T13:16:19.685Z,3.53
2022-12-06T13:18:50.292Z,5.13
2022-12-06T13:21:20.654Z,4.80
2022-12-06T13:23:52.513Z,4.93
2022-12-06T13:26:28.112Z,4.83
2022-12-06T13:28:59.368Z,3.67
2022-12-06T13:31:35.537Z,3.53
2022-12-06T13:34:20.924Z,4.33
2022-12-06T13:36:47.877Z,4.57
2022-12-06T13:39:32.637Z,3.97
2022-12-06T13:42:19.242Z,6.03
2022-12-06T13:44:55.248Z,6.87
2022-12-06T13:47:28.223Z,5.63
2022-12-06T13:50:16.617Z,6.13
2022-12-06T13:52:43.466Z,7.10
2022-12-06T13:55:25.472Z,5.27
2022-12-06T13:57:56.415Z,5.83
2022-12-06T14:00:31.770Z,6.97
2022-12-06T14:03:14.038Z,7.87
2022-12-06T14:06:15.444Z,8.20
2022-12-06T14:08:52.937Z,6.63
2022-12-06T14:11:29.368Z,6.13
2022-12-06T14:13:56.129Z,8.10
2022-12-06T14:16:28.266Z,6.53
2022-12-06T14:18:55.732Z,8.40
2022-12-06T14:21:40.146Z,8.97
2022-12-06T14:24:07.046Z,6.67
2022-12-06T14:26:35.410Z,6.20
2022-12-06T14:29:02.783Z,6.30
2022-12-06T14:31:40.123Z,6.77
2022-12-06T14:34:30.282Z,7.80
2022-12-06T14:36:59.108Z,6.00
2022-12-06T14:39:32.349Z,8.27
2022-12-06T14:42:23.081Z,8.47
2022-12-06T14:44:56.160Z,7.10
2022-12-06T14:47:27.771Z,8.07
2022-12-06T14:50:16.446Z,6.07
2022-12-06T14:53:01.925Z,5.50
2022-12-06T14:55:32.058Z,5.40
2022-12-06T14:58:02.302Z,8.87
2022-12-06T15:00:38.194Z,6.23
2022-12-06T15:03:07.948Z,5.57
2022-12-06T15:05:34.898Z,7.50
2022-12-06T15:08:26.799Z,8.60
2022-12-06T15:11:40.280Z,7.50
2022-12-06T15:14:12.972Z,6.03
2022-12-06T15:16:41.168Z,10.30
2022-12-06T15:19:13.304Z,7.50
2022-12-06T15:21:40.176Z,5.87
2022-12-06T15:24:18.913Z,5.77
2022-12-06T15:26:46.120Z,6.73
2022-12-06T15:29:13.538Z,6.47
2022-12-06T15:31:43.607Z,6.63
2022-12-06T15:34:35.200Z,6.83
2022-12-06T15:37:37.742Z,7.57
2022-12-06T15:39:49.785Z,8.50
2022-12-06T15:42:16.844Z,10.80
2022-12-06T15:44:48.822Z,10.33
2022-12-06T15:47:16.725Z,10.10
2022-12-06T15:49:43.868Z,9.13
2022-12-06T15:52:18.846Z,8.10
2022-12-06T15:54:46.431Z,10.07
2022-12-06T15:57:13.267Z,9.60
2022-12-06T15:59:40.046Z,9.07
2022-12-06T16:02:15.590Z,7.37
2022-12-06T16:04:43.518Z,10.13
2022-12-06T16:07:11.982Z,10.37
2022-12-06T16:09:38.872Z,9.63
2022-12-06T16:12:06.243Z,11.73
2022-12-06T16:14:33.005Z,10.27
2022-12-06T16:16:59.780Z,12.07
2022-12-06T16:19:46.581Z,10.73
2022-12-06T16:22:13.384Z,10.63
2022-12-06T16:24:40.498Z,12.77
2022-12-06T16:27:07.433Z,8.70
2022-12-06T16:29:34.277Z,9.37
2022-12-06T16:32:01.120Z,10.70
2022-12-06T16:34:29.594Z,9.53
2022-12-06T16:36:57.869Z,11.67
2022-12-06T16:39:25.131Z,10.50
2022-12-06T16:41:51.991Z,9.50
2022-12-06T16:44:20.176Z,10.07
2022-12-06T16:46:47.591Z,10.07
2022-12-06T16:52:08.059Z,10.47
2022-12-06T16:54:35.864Z,12.80
2022-12-06T16:57:02.708Z,11.17
2022-12-06T16:59:29.587Z,9.83
2022-12-06T17:01:56.507Z,13.33
2022-12-06T17:04:23.878Z,11.77
2022-12-06T17:06:50.697Z,11.07
2022-12-06T17:09:18.507Z,9.50
2022-12-06T17:12:03.460Z,10.93
2022-12-06T17:14:30.368Z,11.43
2022-12-06T17:17:00.275Z,11.87
2022-12-06T17:19:28.426Z,11.03
2022-12-06T17:21:55.774Z,10.63
2022-12-06T17:24:26.109Z,10.93
2022-12-06T17:26:56.180Z,10.57
2022-12-06T17:29:23.984Z,16.10
2022-12-06T17:31:51.756Z,14.63
2022-12-06T17:34:19.990Z,12.67
2022-12-06T17:36:48.670Z,10.33
2022-12-06T17:39:17.756Z,11.23
2022-12-06T17:42:03.557Z,12.30
2022-12-06T17:44:30.717Z,10.83
2022-12-06T17:46:57.558Z,13.70
2022-12-06T17:49:25.737Z,11.77
2022-12-06T17:51:53.235Z,12.80
2022-12-06T17:54:20.853Z,13.10
2022-12-06T17:56:50.096Z,11.30
2022-12-06T17:59:19.467Z,12.83
2022-12-06T18:04:34.099Z,13.37
2022-12-06T18:07:00.934Z,13.60
2022-12-06T18:09:27.871Z,13.50
2022-12-06T18:11:55.684Z,12.17
2022-12-06T18:14:22.980Z,12.30
2022-12-06T18:16:50.086Z,9.03
2022-12-06T18:19:19.889Z,11.17
2022-12-06T18:21:47.605Z,8.70
2022-12-06T18:24:22.113Z,10.77
2022-12-06T18:26:51.830Z,10.50
2022-12-06T18:29:21.281Z,12.07
2022-12-06T18:31:49.804Z,11.80
2022-12-06T18:34:17.389Z,13.17
2022-12-06T18:36:44.574Z,10.30
2022-12-06T18:39:15.664Z,8.53
2022-12-06T18:41:45.958Z,9.87
2022-12-06T18:44:13.632Z,9.60
2022-12-06T18:46:42.283Z,14.37
2022-12-06T18:49:10.828Z,10.43
2022-12-06T18:51:39.203Z,8.93
2022-12-06T18:54:08.042Z,10.27
2022-12-06T18:56:36.197Z,9.07
2022-12-06T18:59:06.465Z,8.63
2022-12-06T19:01:37.020Z,9.97
2022-12-06T19:04:05.340Z,10.27
2022-12-06T19:06:37.655Z,10.27
2022-12-06T19:09:07.940Z,9.63
2022-12-06T19:11:40.100Z,8.37
2022-12-06T19:14:07.516Z,9.57
2022-12-06T19:16:40.661Z,8.10
2022-12-06T19:19:16.302Z,8.70
2022-12-06T19:21:44.909Z,10.27
2022-12-06T19:24:13.862Z,9.30
2022-12-06T19:26:40.611Z,10.03
2022-12-06T19:29:07.525Z,9.87
2022-12-06T19:31:34.989Z,9.33
2022-12-06T19:34:03.027Z,11.13
2022-12-06T19:36:31.441Z,10.77
2022-12-06T19:39:00.682Z,9.17
2022-12-06T19:41:27.796Z,9.23
2022-12-06T19:44:13.912Z,9.40
2022-12-06T19:46:43.179Z,11.07
2022-12-06T19:49:11.682Z,8.97
2022-12-06T19:51:40.544Z,7.90
2022-12-06T19:54:08.301Z,8.23
2022-12-06T19:56:35.895Z,8.33
2022-12-06T19:59:11.546Z,7.90
2022-12-06T20:01:42.130Z,7.97
2022-12-06T20:04:13.282Z,7.77
2022-12-06T20:06:40.061Z,8.03
2022-12-06T20:09:06.885Z,7.40
2022-12-06T20:11:55.285Z,8.00
2022-12-06T20:14:23.049Z,8.93
2022-12-06T20:16:50.453Z,8.03
2022-12-06T20:19:18.408Z,8.77
2022-12-06T20:21:45.566Z,10.50
2022-12-06T20:24:15.147Z,7.93
2022-12-06T20:26:42.294Z,8.20
2022-12-06T20:29:10.259Z,6.87
2022-12-06T20:31:37.458Z,9.60
2022-12-06T20:34:09.017Z,9.93
2022-12-06T20:36:41.076Z,10.97
2022-12-06T20:39:08.113Z,9.90
2022-12-06T20:41:35.105Z,12.47
2022-12-06T20:44:02.893Z,11.20
2022-12-06T20:46:31.907Z,9.30
2022-12-06T20:49:03.659Z,11.50
2022-12-06T20:51:32.063Z,11.87
2022-12-06T20:54:01.664Z,11.80
2022-12-06T20:56:39.657Z,11.30
2022-12-06T20:59:08.007Z,8.00
2022-12-06T21:01:37.290Z,13.13
2022-12-06T21:04:04.208Z,13.17
2022-12-06T21:06:31.358Z,13.37
2022-12-06T21:08:58.423Z,11.67
2022-12-06T21:11:25.777Z,12.27
2022-12-06T21:13:53.855Z,12.50
2022-12-06T21:16:26.368Z,10.97
2022-12-06T21:19:02.305Z,9.80
2022-12-06T21:21:32.519Z,9.57
2022-12-06T21:24:04.046Z,10.30
2022-12-06T21:26:31.675Z,11.70
2022-12-06T21:28:58.527Z,10.77
2022-12-06T21:31:30.950Z,11.07
2022-12-06T21:33:58.623Z,11.30
2022-12-06T21:36:25.712Z,12.17
2022-12-06T21:38:53.163Z,9.07
2022-12-06T21:41:20.437Z,11.03
2022-12-06T21:43:47.845Z,10.87
2022-12-06T21:46:20.963Z,10.93
2022-12-06T21:48:52.811Z,11.40
2022-12-06T21:51:20.586Z,9.07
2022-12-06T21:53:47.916Z,8.57
2022-12-06T21:56:27.174Z,7.27
2022-12-06T21:58:54.665Z,7.13
2022-12-06T22:01:27.944Z,8.10
2022-12-06T22:03:57.573Z,9.50
2022-12-06T22:06:25.075Z,8.70
2022-12-06T22:09:03.923Z,6.93
2022-12-06T22:11:31.608Z,8.43
2022-12-06T22:13:59.847Z,9.03
2022-12-06T22:16:27.602Z,7.97
2022-12-06T22:18:55.261Z,11.77
2022-12-06T22:21:28.696Z,7.93
2022-12-06T22:23:58.151Z,9.60
2022-12-06T22:26:28.181Z,9.57
2022-12-06T22:28:55.435Z,6.40
2022-12-06T22:31:28.375Z,7.70
2022-12-06T22:33:56.782Z,8.47
2022-12-06T22:36:23.995Z,7.87
2022-12-06T22:38:52.837Z,6.50
2022-12-06T22:41:20.803Z,7.63
2022-12-06T22:43:55.679Z,9.33
2022-12-06T22:46:26.237Z,7.13
2022-12-06T22:48:54.218Z,7.57
2022-12-06T22:51:24.925Z,7.57
2022-12-06T22:54:06.625Z,6.70
2022-12-06T22:56:33.785Z,7.70
2022-12-06T22:59:01.580Z,6.97
2022-12-06T23:01:31.498Z,8.73
2022-12-06T23:04:02.029Z,13.87
2022-12-06T23:06:29.516Z,9.13
2022-12-06T23:08:57.038Z,9.43
2022-12-06T23:11:27.438Z,8.27
2022-12-06T23:13:55.930Z,7.70
2022-12-06T23:16:28.733Z,7.27
2022-12-06T23:18:56.254Z,8.93
2022-12-06T23:21:25.999Z,8.23
2022-12-06T23:23:58.682Z,7.37
2022-12-06T23:26:29.855Z,8.13
2022-12-06T23:28:56.867Z,9.83
2022-12-06T23:31:26.439Z,7.87
2022-12-06T23:33:59.558Z,9.27
2022-12-06T23:36:28.322Z,8.37
2022-12-06T23:38:55.922Z,7.83
2022-12-06T23:41:25.811Z,9.90
2022-12-06T23:43:53.845Z,7.10
2022-12-06T23:46:23.592Z,7.23
2022-12-06T23:48:51.628Z,11.10
2022-12-06T23:51:21.308Z,7.83
2022-12-06T23:53:53.710Z,8.00
2022-12-06T23:56:21.828Z,8.83
2022-12-06T23:58:52.668Z,6.80
